Time,TemperatureF,DewpointF,PressureIn,WindDirection,WindDirectionDegrees,WindSpeedMPH,WindSpeedGustMPH,Humidity,HourlyPrecipIn,Conditions,Clouds,dailyrainin,SoftwareType,DateUTC
2013-06-21 00:00:00,74.5,64.7,30.19,NNE,25,7.0,16.0,72,0.00,,,0.00,Weather View 32 v70,2013-06-21 04:00:00,
2013-06-21 00:01:00,74.6,64.9,30.19,NNE,20,11.0,16.0,72,0.00,,,0.00,Weather View 32 v70,2013-06-21 04:01:00,
2013-06-21 00:06:00,74.4,64.9,30.18,NNE,25,5.0,16.0,72,0.00,,,0.00,Weather View 32 v70,2013-06-21 04:06:00,
2013-06-21 00:11:00,74.2,64.8,30.18,NE,48,10.0,16.0,73,0.00,,,0.00,Weather View 32 v70,2013-06-21 04:11:00,
2013-06-21 00:16:00,74.0,64.6,30.18,North,1,10.0,16.0,73,0.00,,,0.00,Weather View 32 v70,2013-06-21 04:16:00,
2013-06-21 00:21:00,73.9,64.7,30.18,NNE,23,11.0,16.0,73,0.00,,,0.00,Weather View 32 v70,2013-06-21 04:21:00,
2013-06-21 00:26:00,73.6,64.6,30.18,NE,44,8.0,16.0,74,0.00,,,0.00,Weather View 32 v70,2013-06-21 04:26:00,
2013-06-21 00:27:00,73.6,64.6,30.18,North,353,5.0,16.0,74,0.00,,,0.00,Weather View 32 v70,2013-06-21 04:27:00,
2013-06-21 00:31:00,73.5,64.6,30.18,NNE,17,9.0,16.0,74,0.00,,,0.00,Weather View 32 v70,2013-06-21 04:31:00,
2013-06-21 00:32:00,73.5,64.6,30.18,North,10,10.0,16.0,74,0.00,,,0.00,Weather View 32 v70,2013-06-21 04:32:00,
2013-06-21 00:37:00,73.3,64.6,30.18,NNE,24,11.0,16.0,74,0.00,,,0.00,Weather View 32 v70,2013-06-21 04:37:00,
2013-06-21 00:42:00,73.2,64.7,30.18,NNE,20,9.0,16.0,75,0.00,,,0.00,Weather View 32 v70,2013-06-21 04:42:00,
2013-06-21 00:47:00,73.1,64.8,30.18,NNE,28,8.0,16.0,75,0.00,,,0.00,Weather View 32 v70,2013-06-21 04:47:00,
2013-06-21 00:48:00,73.1,64.8,30.18,NNE,17,10.0,16.0,75,0.00,,,0.00,Weather View 32 v70,2013-06-21 04:48:00,
2013-06-21 00:52:00,73.0,64.8,30.18,North,359,6.0,16.0,76,0.00,,,0.00,Weather View 32 v70,2013-06-21 04:52:00,
2013-06-21 00:53:00,73.1,64.9,30.18,NE,51,4.0,16.0,76,0.00,,,0.00,Weather View 32 v70,2013-06-21 04:53:00,
2013-06-21 00:57:00,72.9,64.9,30.18,NE,42,6.0,16.0,76,0.00,,,0.00,Weather View 32 v70,2013-06-21 04:57:00,
2013-06-21 00:58:00,73.0,65.0,30.18,NNE,24,8.0,16.0,76,0.00,,,0.00,Weather View 32 v70,2013-06-21 04:58:00,
2013-06-21 01:02:00,72.8,65.0,30.17,NE,34,7.0,16.0,77,0.00,,,0.00,Weather View 32 v70,2013-06-21 05:02:00,
2013-06-21 01:03:00,72.8,65.0,30.17,NNE,17,6.0,16.0,77,0.00,,,0.00,Weather View 32 v70,2013-06-21 05:03:00,
2013-06-21 01:07:00,72.7,65.0,30.17,NE,38,5.0,16.0,77,0.00,,,0.00,Weather View 32 v70,2013-06-21 05:07:00,
2013-06-21 01:08:00,72.7,65.0,30.17,East,80,2.0,16.0,77,0.00,,,0.00,Weather View 32 v70,2013-06-21 05:08:00,
2013-06-21 01:12:00,72.6,65.1,30.17,NNE,20,3.0,16.0,78,0.00,,,0.00,Weather View 32 v70,2013-06-21 05:12:00,
2013-06-21 01:13:00,72.6,65.2,30.17,NNW,338,6.0,16.0,78,0.00,,,0.00,Weather View 32 v70,2013-06-21 05:13:00,
2013-06-21 01:18:00,72.6,65.5,30.17,NNE,24,9.0,16.0,79,0.00,,,0.00,Weather View 32 v70,2013-06-21 05:18:00,
2013-06-21 01:23:00,72.8,66.0,30.17,NNE,27,8.0,15.0,79,0.00,,,0.00,Weather View 32 v70,2013-06-21 05:23:00,
2013-06-21 01:24:00,72.9,66.2,30.17,ENE,62,6.0,15.0,80,0.00,,,0.00,Weather View 32 v70,2013-06-21 05:24:00,
2013-06-21 01:28:00,72.9,66.4,30.16,NE,35,6.0,15.0,80,0.00,,,0.00,Weather View 32 v70,2013-06-21 05:28:00,
2013-06-21 01:29:00,72.9,66.4,30.16,North,359,7.0,15.0,80,0.00,,,0.00,Weather View 32 v70,2013-06-21 05:29:00,
2013-06-21 01:33:00,73.2,67.1,30.16,NNE,24,13.0,14.0,81,0.00,,,0.00,Weather View 32 v70,2013-06-21 05:33:00,
2013-06-21 01:34:00,73.2,67.2,30.16,NE,45,10.0,14.0,82,0.00,,,0.00,Weather View 32 v70,2013-06-21 05:34:00,
2013-06-21 01:38:00,73.5,67.6,30.16,NNE,18,12.0,15.0,82,0.00,,,0.00,Weather View 32 v70,2013-06-21 05:38:00,
2013-06-21 01:39:00,73.5,67.6,30.16,ENE,69,12.0,15.0,82,0.00,,,0.00,Weather View 32 v70,2013-06-21 05:39:00,
2013-06-21 01:43:00,73.7,68.0,30.16,NNE,15,7.0,15.0,82,0.00,,,0.00,Weather View 32 v70,2013-06-21 05:43:00,
2013-06-21 01:44:00,73.7,68.0,30.16,NE,55,6.0,15.0,82,0.00,,,0.00,Weather View 32 v70,2013-06-21 05:44:00,
2013-06-21 01:48:00,73.9,68.4,30.16,NE,37,9.0,16.0,83,0.00,,,0.00,Weather View 32 v70,2013-06-21 05:48:00,
2013-06-21 01:49:00,73.9,68.4,30.16,North,3,9.0,16.0,83,0.00,,,0.00,Weather View 32 v70,2013-06-21 05:49:00,
2013-06-21 01:53:00,74.0,68.6,30.16,NE,52,9.0,18.0,83,0.00,,,0.00,Weather View 32 v70,2013-06-21 05:53:00,
2013-06-21 01:54:00,74.0,68.6,30.16,North,11,10.0,18.0,83,0.00,,,0.00,Weather View 32 v70,2013-06-21 05:54:00,
2013-06-21 01:58:00,73.8,68.5,30.16,NNE,27,13.0,18.0,84,0.00,,,0.00,Weather View 32 v70,2013-06-21 05:58:00,
2013-06-21 01:59:00,73.8,68.5,30.15,NE,45,7.0,18.0,84,0.00,,,0.00,Weather View 32 v70,2013-06-21 05:59:00,
2013-06-21 02:03:00,73.9,68.7,30.15,NE,41,10.0,18.0,84,0.00,,,0.00,Weather View 32 v70,2013-06-21 06:03:00,
2013-06-21 02:04:00,73.9,68.8,30.15,NE,44,7.0,18.0,84,0.00,,,0.00,Weather View 32 v70,2013-06-21 06:04:00,
2013-06-21 02:05:00,73.8,68.7,30.15,NE,53,7.0,18.0,84,0.00,,,0.00,Weather View 32 v70,2013-06-21 06:05:00,
2013-06-21 02:09:00,73.7,68.7,30.15,NE,51,13.0,18.0,84,0.00,,,0.00,Weather View 32 v70,2013-06-21 06:09:00,
2013-06-21 02:10:00,73.6,68.6,30.15,NNE,24,13.0,18.0,85,0.00,,,0.00,Weather View 32 v70,2013-06-21 06:10:00,
2013-06-21 02:14:00,73.6,68.7,30.15,NE,35,8.0,18.0,85,0.00,,,0.00,Weather View 32 v70,2013-06-21 06:14:00,
2013-06-21 02:15:00,73.5,68.6,30.15,ENE,58,9.0,18.0,85,0.00,,,0.00,Weather View 32 v70,2013-06-21 06:15:00,
2013-06-21 02:19:00,73.4,68.6,30.15,ENE,63,8.0,18.0,85,0.00,,,0.00,Weather View 32 v70,2013-06-21 06:19:00,
2013-06-21 02:20:00,73.4,68.6,30.15,NE,35,8.0,18.0,85,0.00,,,0.00,Weather View 32 v70,2013-06-21 06:20:00,
2013-06-21 02:21:00,73.4,68.6,30.15,North,8,6.0,18.0,85,0.00,,,0.00,Weather View 32 v70,2013-06-21 06:21:00,
2013-06-21 02:25:00,73.3,68.5,30.15,North,10,8.0,18.0,85,0.00,,,0.00,Weather View 32 v70,2013-06-21 06:25:00,
2013-06-21 02:26:00,73.2,68.4,30.15,NE,41,11.0,18.0,85,0.00,,,0.00,Weather View 32 v70,2013-06-21 06:26:00,
2013-06-21 02:30:00,73.2,68.4,30.15,NE,34,8.0,18.0,85,0.00,,,0.00,Weather View 32 v70,2013-06-21 06:30:00,
2013-06-21 02:31:00,73.1,68.4,30.15,NE,45,9.0,18.0,85,0.00,,,0.00,Weather View 32 v70,2013-06-21 06:31:00,
2013-06-21 02:35:00,73.0,68.2,30.15,North,0,11.0,18.0,85,0.00,,,0.00,Weather View 32 v70,2013-06-21 06:35:00,
2013-06-21 02:36:00,73.0,68.2,30.15,NNE,20,13.0,18.0,85,0.00,,,0.00,Weather View 32 v70,2013-06-21 06:36:00,
2013-06-21 02:40:00,73.0,68.1,30.15,NE,42,5.0,18.0,85,0.00,,,0.00,Weather View 32 v70,2013-06-21 06:40:00,
2013-06-21 02:41:00,72.9,68.0,30.15,NE,52,8.0,18.0,85,0.00,,,0.00,Weather View 32 v70,2013-06-21 06:41:00,
2013-06-21 02:42:00,72.9,68.0,30.15,NE,37,7.0,18.0,85,0.00,,,0.00,Weather View 32 v70,2013-06-21 06:42:00,
2013-06-21 02:45:00,72.9,68.0,30.15,NNE,31,9.0,18.0,85,0.00,,,0.00,Weather View 32 v70,2013-06-21 06:45:00,
2013-06-21 02:46:00,72.9,68.0,30.15,NNE,14,11.0,18.0,85,0.00,,,0.00,Weather View 32 v70,2013-06-21 06:46:00,
2013-06-21 02:47:00,72.8,67.9,30.15,NE,41,4.0,18.0,85,0.00,,,0.00,Weather View 32 v70,2013-06-21 06:47:00,
2013-06-21 02:50:00,72.8,67.8,30.15,NE,34,10.0,18.0,85,0.00,,,0.00,Weather View 32 v70,2013-06-21 06:50:00,
2013-06-21 02:51:00,72.9,67.9,30.15,NNE,15,6.0,18.0,85,0.00,,,0.00,Weather View 32 v70,2013-06-21 06:51:00,
2013-06-21 02:52:00,72.8,67.8,30.15,North,359,5.0,18.0,85,0.00,,,0.00,Weather View 32 v70,2013-06-21 06:52:00,
2013-06-21 02:55:00,72.6,67.6,30.16,North,359,5.0,18.0,84,0.00,,,0.00,Weather View 32 v70,2013-06-21 06:55:00,
2013-06-21 02:56:00,72.7,67.7,30.16,North,8,5.0,18.0,84,0.00,,,0.00,Weather View 32 v70,2013-06-21 06:56:00,
2013-06-21 02:57:00,72.5,67.5,30.16,North,350,3.0,18.0,84,0.00,,,0.00,Weather View 32 v70,2013-06-21 06:57:00,
2013-06-21 03:00:00,72.2,67.3,30.16,North,3,5.0,18.0,85,0.00,,,0.00,Weather View 32 v70,2013-06-21 07:00:00,
2013-06-21 03:01:00,72.1,67.3,30.16,NNE,13,3.0,18.0,85,0.00,,,0.00,Weather View 32 v70,2013-06-21 07:01:00,
2013-06-21 03:02:00,72.1,67.3,30.16,NNW,343,5.0,18.0,85,0.00,,,0.00,Weather View 32 v70,2013-06-21 07:02:00,
2013-06-21 03:05:00,71.6,67.0,30.16,NW,325,6.0,18.0,85,0.00,,,0.00,Weather View 32 v70,2013-06-21 07:05:00,
2013-06-21 03:06:00,71.7,67.1,30.16,NNE,31,5.0,18.0,85,0.00,,,0.00,Weather View 32 v70,2013-06-21 07:06:00,
2013-06-21 03:07:00,71.6,67.0,30.16,NNE,13,7.0,17.0,86,0.00,,,0.00,Weather View 32 v70,2013-06-21 07:07:00,
2013-06-21 03:10:00,71.4,66.9,30.16,North,359,5.0,17.0,86,0.00,,,0.00,Weather View 32 v70,2013-06-21 07:10:00,
2013-06-21 03:11:00,71.3,66.8,30.16,NNE,13,6.0,17.0,86,0.00,,,0.00,Weather View 32 v70,2013-06-21 07:11:00,
2013-06-21 03:12:00,71.3,66.8,30.16,North,7,7.0,17.0,86,0.00,,,0.00,Weather View 32 v70,2013-06-21 07:12:00,
2013-06-21 03:16:00,71.0,66.7,30.15,NNE,32,2.0,17.0,86,0.00,,,0.00,Weather View 32 v70,2013-06-21 07:16:00,
2013-06-21 03:17:00,71.0,66.7,30.16,North,359,4.0,15.0,86,0.00,,,0.00,Weather View 32 v70,2013-06-21 07:17:00,
2013-06-21 03:18:00,71.0,66.7,30.16,NE,44,3.0,15.0,86,0.00,,,0.00,Weather View 32 v70,2013-06-21 07:18:00,
2013-06-21 03:21:00,70.9,66.6,30.16,ENE,68,2.0,15.0,86,0.00,,,0.00,Weather View 32 v70,2013-06-21 07:21:00,
2013-06-21 03:22:00,70.8,66.6,30.16,NNE,21,11.0,15.0,87,0.00,,,0.00,Weather View 32 v70,2013-06-21 07:22:00,
2013-06-21 03:23:00,70.8,66.6,30.16,ENE,60,9.0,15.0,87,0.00,,,0.00,Weather View 32 v70,2013-06-21 07:23:00,
2013-06-21 03:26:00,70.6,66.4,30.15,North,349,5.0,15.0,87,0.00,,,0.00,Weather View 32 v70,2013-06-21 07:26:00,
2013-06-21 03:27:00,70.7,66.5,30.15,North,3,5.0,15.0,87,0.00,,,0.00,Weather View 32 v70,2013-06-21 07:27:00,
2013-06-21 03:28:00,70.7,66.5,30.15,North,357,7.0,15.0,87,0.00,,,0.00,Weather View 32 v70,2013-06-21 07:28:00,
2013-06-21 03:31:00,70.6,66.4,30.15,NNE,31,5.0,15.0,87,0.00,,,0.00,Weather View 32 v70,2013-06-21 07:31:00,
2013-06-21 03:32:00,70.5,66.3,30.15,NNE,25,10.0,15.0,87,0.00,,,0.00,Weather View 32 v70,2013-06-21 07:32:00,
2013-06-21 03:33:00,70.5,66.3,30.15,NE,34,6.0,15.0,87,0.00,,,0.00,Weather View 32 v70,2013-06-21 07:33:00,
2013-06-21 03:36:00,70.4,66.2,30.15,North,349,4.0,14.0,87,0.00,,,0.00,Weather View 32 v70,2013-06-21 07:36:00,
2013-06-21 03:37:00,70.2,66.0,30.15,North,10,5.0,14.0,87,0.00,,,0.00,Weather View 32 v70,2013-06-21 07:37:00,
2013-06-21 03:38:00,70.3,66.1,30.15,NNE,21,6.0,14.0,87,0.00,,,0.00,Weather View 32 v70,2013-06-21 07:38:00,
2013-06-21 03:41:00,70.2,66.0,30.15,NNW,346,8.0,14.0,87,0.00,,,0.00,Weather View 32 v70,2013-06-21 07:41:00,
2013-06-21 03:42:00,70.2,66.1,30.15,NNW,343,6.0,14.0,87,0.00,,,0.00,Weather View 32 v70,2013-06-21 07:42:00,
2013-06-21 03:43:00,70.2,66.1,30.15,North,354,3.0,14.0,87,0.00,,,0.00,Weather View 32 v70,2013-06-21 07:43:00,
2013-06-21 03:46:00,70.0,65.9,30.15,NNW,342,10.0,13.0,87,0.00,,,0.00,Weather View 32 v70,2013-06-21 07:46:00,
2013-06-21 03:47:00,70.0,65.9,30.15,North,11,6.0,13.0,87,0.00,,,0.00,Weather View 32 v70,2013-06-21 07:47:00,
2013-06-21 03:48:00,70.1,66.0,30.15,NNE,32,5.0,13.0,87,0.00,,,0.00,Weather View 32 v70,2013-06-21 07:48:00,
2013-06-21 03:49:00,70.0,65.9,30.15,North,354,3.0,13.0,87,0.00,,,0.00,Weather View 32 v70,2013-06-21 07:49:00,
2013-06-21 03:51:00,70.0,66.0,30.15,North,7,4.0,12.0,87,0.00,,,0.00,Weather View 32 v70,2013-06-21 07:51:00,
2013-06-21 03:52:00,70.0,66.0,30.15,NNE,31,3.0,12.0,87,0.00,,,0.00,Weather View 32 v70,2013-06-21 07:52:00,
2013-06-21 03:53:00,70.0,66.0,30.15,NNE,15,7.0,12.0,87,0.00,,,0.00,Weather View 32 v70,2013-06-21 07:53:00,
2013-06-21 03:54:00,70.0,66.0,30.15,NNE,30,6.0,12.0,87,0.00,,,0.00,Weather View 32 v70,2013-06-21 07:54:00,
2013-06-21 03:56:00,69.9,65.9,30.14,North,1,1.0,12.0,87,0.00,,,0.00,Weather View 32 v70,2013-06-21 07:56:00,
2013-06-21 03:57:00,69.8,65.8,30.15,NNE,20,3.0,12.0,87,0.00,,,0.00,Weather View 32 v70,2013-06-21 07:57:00,
2013-06-21 03:58:00,69.8,65.8,30.15,NE,44,7.0,12.0,87,0.00,,,0.00,Weather View 32 v70,2013-06-21 07:58:00,
2013-06-21 03:59:00,69.7,65.7,30.15,NNW,346,3.0,12.0,87,0.00,,,0.00,Weather View 32 v70,2013-06-21 07:59:00,
2013-06-21 04:01:00,69.7,65.7,30.15,NNW,343,5.0,12.0,87,0.00,,,0.00,Weather View 32 v70,2013-06-21 08:01:00,
2013-06-21 04:02:00,69.6,65.6,30.15,NE,37,2.0,12.0,87,0.00,,,0.00,Weather View 32 v70,2013-06-21 08:02:00,
2013-06-21 04:03:00,69.6,65.6,30.15,NNW,335,3.0,12.0,87,0.00,,,0.00,Weather View 32 v70,2013-06-21 08:03:00,
2013-06-21 04:04:00,69.6,65.6,30.15,NNE,18,7.0,12.0,87,0.00,,,0.00,Weather View 32 v70,2013-06-21 08:04:00,
2013-06-21 04:07:00,69.5,65.5,30.15,NNE,25,5.0,12.0,87,0.00,,,0.00,Weather View 32 v70,2013-06-21 08:07:00,
2013-06-21 04:08:00,69.4,65.4,30.15,NNE,18,5.0,12.0,87,0.00,,,0.00,Weather View 32 v70,2013-06-21 08:08:00,
2013-06-21 04:09:00,69.5,65.6,30.15,NNW,333,4.0,12.0,87,0.00,,,0.00,Weather View 32 v70,2013-06-21 08:09:00,
2013-06-21 04:12:00,69.4,65.5,30.15,North,359,4.0,12.0,88,0.00,,,0.00,Weather View 32 v70,2013-06-21 08:12:00,
2013-06-21 04:13:00,69.3,65.4,30.15,North,350,1.0,12.0,88,0.00,,,0.00,Weather View 32 v70,2013-06-21 08:13:00,
2013-06-21 04:14:00,69.2,65.3,30.15,NNW,347,6.0,12.0,87,0.00,,,0.00,Weather View 32 v70,2013-06-21 08:14:00,
2013-06-21 04:15:00,69.2,65.3,30.15,NNW,340,5.0,12.0,88,0.00,,,0.00,Weather View 32 v70,2013-06-21 08:15:00,
2013-06-21 04:17:00,69.1,65.2,30.15,North,353,3.0,12.0,88,0.00,,,0.00,Weather View 32 v70,2013-06-21 08:17:00,
2013-06-21 04:18:00,69.1,65.2,30.14,NNW,347,1.0,12.0,88,0.00,,,0.00,Weather View 32 v70,2013-06-21 08:18:00,
2013-06-21 04:19:00,69.1,65.2,30.14,West,273,4.0,12.0,88,0.00,,,0.00,Weather View 32 v70,2013-06-21 08:19:00,
2013-06-21 04:20:00,69.1,65.2,30.14,NNE,13,4.0,12.0,88,0.00,,,0.00,Weather View 32 v70,2013-06-21 08:20:00,
2013-06-21 04:22:00,68.9,65.1,30.14,NW,305,7.0,12.0,88,0.00,,,0.00,Weather View 32 v70,2013-06-21 08:22:00,
2013-06-21 04:24:00,68.9,65.1,30.14,NE,49,2.0,12.0,88,0.00,,,0.00,Weather View 32 v70,2013-06-21 08:24:00,
2013-06-21 04:25:00,68.8,65.0,30.14,ENE,66,3.0,11.0,88,0.00,,,0.00,Weather View 32 v70,2013-06-21 08:25:00,
2013-06-21 04:28:00,68.7,65.0,30.14,North,8,2.0,11.0,88,0.00,,,0.00,Weather View 32 v70,2013-06-21 08:28:00,
2013-06-21 04:29:00,68.6,64.8,30.15,NNW,340,2.0,11.0,88,0.00,,,0.00,Weather View 32 v70,2013-06-21 08:29:00,
2013-06-21 04:30:00,68.5,64.7,30.14,NW,319,2.0,11.0,88,0.00,,,0.00,Weather View 32 v70,2013-06-21 08:30:00,
2013-06-21 04:33:00,68.4,64.7,30.15,North,352,4.0,11.0,88,0.00,,,0.00,Weather View 32 v70,2013-06-21 08:33:00,
2013-06-21 04:34:00,68.4,64.7,30.15,NNW,347,5.0,11.0,88,0.00,,,0.00,Weather View 32 v70,2013-06-21 08:34:00,
2013-06-21 04:35:00,68.4,64.7,30.15,NNW,339,1.0,11.0,88,0.00,,,0.00,Weather View 32 v70,2013-06-21 08:35:00,
2013-06-21 04:38:00,68.4,64.7,30.14,North,10,6.0,11.0,88,0.00,,,0.00,Weather View 32 v70,2013-06-21 08:38:00,
2013-06-21 04:39:00,68.3,64.6,30.14,NNW,340,6.0,11.0,88,0.00,,,0.00,Weather View 32 v70,2013-06-21 08:39:00,
2013-06-21 04:40:00,68.3,64.6,30.14,NW,322,3.0,11.0,88,0.00,,,0.00,Weather View 32 v70,2013-06-21 08:40:00,
2013-06-21 04:43:00,68.2,64.6,30.14,NNW,339,5.0,11.0,88,0.00,,,0.00,Weather View 32 v70,2013-06-21 08:43:00,
2013-06-21 04:44:00,68.1,64.5,30.14,NNW,333,5.0,11.0,88,0.00,,,0.00,Weather View 32 v70,2013-06-21 08:44:00,
2013-06-21 04:45:00,68.1,64.5,30.14,North,359,5.0,11.0,88,0.00,,,0.00,Weather View 32 v70,2013-06-21 08:45:00,
2013-06-21 04:46:00,68.0,64.4,30.14,North,6,4.0,11.0,88,0.00,,,0.00,Weather View 32 v70,2013-06-21 08:46:00,
2013-06-21 04:48:00,67.9,64.3,30.14,NNW,346,5.0,11.0,88,0.00,,,0.00,Weather View 32 v70,2013-06-21 08:48:00,
2013-06-21 04:49:00,68.0,64.4,30.14,NNW,332,5.0,11.0,88,0.00,,,0.00,Weather View 32 v70,2013-06-21 08:49:00,
2013-06-21 04:50:00,67.9,64.3,30.14,NNW,340,4.0,11.0,88,0.00,,,0.00,Weather View 32 v70,2013-06-21 08:50:00,
2013-06-21 04:51:00,67.8,64.3,30.14,NNE,20,4.0,11.0,89,0.00,,,0.00,Weather View 32 v70,2013-06-21 08:51:00,
2013-06-21 04:53:00,67.7,64.2,30.14,North,352,6.0,11.0,89,0.00,,,0.00,Weather View 32 v70,2013-06-21 08:53:00,
2013-06-21 04:54:00,67.6,64.1,30.14,NNW,343,6.0,11.0,89,0.00,,,0.00,Weather View 32 v70,2013-06-21 08:54:00,
2013-06-21 04:55:00,67.7,64.2,30.14,North,1,7.0,11.0,89,0.00,,,0.00,Weather View 32 v70,2013-06-21 08:55:00,
2013-06-21 04:56:00,67.7,64.2,30.14,ENE,58,6.0,11.0,89,0.00,,,0.00,Weather View 32 v70,2013-06-21 08:56:00,
2013-06-21 04:58:00,67.5,64.1,30.14,NNW,332,6.0,11.0,89,0.00,,,0.00,Weather View 32 v70,2013-06-21 08:58:00,
2013-06-21 04:59:00,67.5,64.1,30.14,North,10,4.0,11.0,89,0.00,,,0.00,Weather View 32 v70,2013-06-21 08:59:00,
2013-06-21 05:00:00,67.7,64.3,30.14,North,11,5.0,11.0,89,0.00,,,0.00,Weather View 32 v70,2013-06-21 09:00:00,
2013-06-21 05:01:00,67.5,64.1,30.14,North,357,7.0,11.0,89,0.00,,,0.00,Weather View 32 v70,2013-06-21 09:01:00,
2013-06-21 05:03:00,67.5,64.2,30.14,NE,37,8.0,11.0,89,0.00,,,0.00,Weather View 32 v70,2013-06-21 09:03:00,
2013-06-21 05:04:00,67.6,64.3,30.14,North,11,6.0,11.0,89,0.00,,,0.00,Weather View 32 v70,2013-06-21 09:04:00,
2013-06-21 05:05:00,67.5,64.2,30.14,NNE,18,8.0,11.0,89,0.00,,,0.00,Weather View 32 v70,2013-06-21 09:05:00,
2013-06-21 05:06:00,67.5,64.3,30.14,NNE,21,6.0,11.0,89,0.00,,,0.00,Weather View 32 v70,2013-06-21 09:06:00,
2013-06-21 05:07:00,67.7,64.5,30.14,NNE,30,9.0,11.0,89,0.00,,,0.00,Weather View 32 v70,2013-06-21 09:07:00,
2013-06-21 05:08:00,67.6,64.4,30.14,North,6,8.0,11.0,89,0.00,,,0.00,Weather View 32 v70,2013-06-21 09:08:00,
2013-06-21 05:09:00,67.4,64.2,30.14,North,10,4.0,11.0,89,0.00,,,0.00,Weather View 32 v70,2013-06-21 09:09:00,
2013-06-21 05:10:00,67.7,64.5,30.14,NNW,345,7.0,11.0,89,0.00,,,0.00,Weather View 32 v70,2013-06-21 09:10:00,
2013-06-21 05:11:00,67.6,64.4,30.14,NNE,24,5.0,12.0,89,0.00,,,0.00,Weather View 32 v70,2013-06-21 09:11:00,
2013-06-21 05:12:00,67.6,64.4,30.14,ENE,58,4.0,12.0,89,0.00,,,0.00,Weather View 32 v70,2013-06-21 09:12:00,
2013-06-21 05:13:00,67.6,64.4,30.14,NNE,24,9.0,12.0,89,0.00,,,0.00,Weather View 32 v70,2013-06-21 09:13:00,
2013-06-21 05:15:00,67.7,64.5,30.14,NNE,31,6.0,12.0,90,0.00,,,0.00,Weather View 32 v70,2013-06-21 09:15:00,
2013-06-21 05:17:00,67.7,64.5,30.15,North,1,7.0,12.0,90,0.00,,,0.00,Weather View 32 v70,2013-06-21 09:17:00,
2013-06-21 05:19:00,67.7,64.5,30.15,NE,37,5.0,13.0,90,0.00,,,0.00,Weather View 32 v70,2013-06-21 09:19:00,
2013-06-21 05:20:00,67.8,64.6,30.14,NW,312,3.0,13.0,90,0.00,,,0.00,Weather View 32 v70,2013-06-21 09:20:00,
2013-06-21 05:21:00,67.5,64.4,30.15,NE,53,5.0,13.0,90,0.00,,,0.00,Weather View 32 v70,2013-06-21 09:21:00,
2013-06-21 05:22:00,67.8,64.7,30.15,North,357,8.0,13.0,90,0.00,,,0.00,Weather View 32 v70,2013-06-21 09:22:00,
2013-06-21 05:24:00,67.7,64.6,30.15,North,359,9.0,13.0,90,0.00,,,0.00,Weather View 32 v70,2013-06-21 09:24:00,
2013-06-21 05:25:00,67.9,64.8,30.15,North,10,5.0,13.0,90,0.00,,,0.00,Weather View 32 v70,2013-06-21 09:25:00,
2013-06-21 05:26:00,68.0,64.9,30.14,NNW,343,7.0,13.0,90,0.00,,,0.00,Weather View 32 v70,2013-06-21 09:26:00,
2013-06-21 05:27:00,67.8,64.7,30.14,NNE,13,5.0,13.0,90,0.00,,,0.00,Weather View 32 v70,2013-06-21 09:27:00,
2013-06-21 05:29:00,67.9,64.8,30.15,NE,46,6.0,13.0,90,0.00,,,0.00,Weather View 32 v70,2013-06-21 09:29:00,
2013-06-21 05:30:00,68.0,64.9,30.15,NE,41,7.0,13.0,90,0.00,,,0.00,Weather View 32 v70,2013-06-21 09:30:00,
2013-06-21 05:31:00,68.0,64.9,30.15,NNE,14,3.0,13.0,90,0.00,,,0.00,Weather View 32 v70,2013-06-21 09:31:00,
2013-06-21 05:32:00,68.1,65.0,30.15,NNW,335,11.0,13.0,90,0.00,,,0.00,Weather View 32 v70,2013-06-21 09:32:00,
2013-06-21 05:34:00,68.2,65.1,30.15,NW,321,3.0,13.0,90,0.00,,,0.00,Weather View 32 v70,2013-06-21 09:34:00,
2013-06-21 05:35:00,68.2,65.1,30.15,NNE,24,4.0,13.0,90,0.00,,,0.00,Weather View 32 v70,2013-06-21 09:35:00,
2013-06-21 05:36:00,68.2,65.1,30.15,North,359,7.0,13.0,90,0.00,,,0.00,Weather View 32 v70,2013-06-21 09:36:00,
2013-06-21 05:37:00,68.3,65.2,30.15,NNE,32,4.0,13.0,90,0.00,,,0.00,Weather View 32 v70,2013-06-21 09:37:00,
2013-06-21 05:39:00,68.4,65.3,30.15,North,6,4.0,13.0,90,0.00,,,0.00,Weather View 32 v70,2013-06-21 09:39:00,
2013-06-21 05:40:00,68.3,65.2,30.15,NNE,14,7.0,13.0,90,0.00,,,0.00,Weather View 32 v70,2013-06-21 09:40:00,
2013-06-21 05:41:00,68.3,65.2,30.15,NW,318,5.0,13.0,90,0.00,,,0.00,Weather View 32 v70,2013-06-21 09:41:00,
2013-06-21 05:42:00,68.4,65.3,30.15,NNE,31,9.0,13.0,90,0.00,,,0.00,Weather View 32 v70,2013-06-21 09:42:00,
2013-06-21 05:45:00,68.4,65.3,30.15,NNE,27,6.0,13.0,90,0.00,,,0.00,Weather View 32 v70,2013-06-21 09:45:00,
2013-06-21 05:46:00,68.4,65.3,30.15,North,1,5.0,13.0,90,0.00,,,0.00,Weather View 32 v70,2013-06-21 09:46:00,
2013-06-21 05:47:00,68.4,65.3,30.15,NNW,347,4.0,13.0,90,0.00,,,0.00,Weather View 32 v70,2013-06-21 09:47:00,
2013-06-21 05:50:00,68.5,65.4,30.15,North,350,3.0,13.0,90,0.00,,,0.00,Weather View 32 v70,2013-06-21 09:50:00,
2013-06-21 05:51:00,68.4,65.3,30.15,NE,34,4.0,13.0,90,0.00,,,0.00,Weather View 32 v70,2013-06-21 09:51:00,
2013-06-21 05:52:00,68.4,65.3,30.15,NNW,330,2.0,13.0,90,0.00,,,0.00,Weather View 32 v70,2013-06-21 09:52:00,
2013-06-21 05:55:00,68.5,65.4,30.15,NNE,18,4.0,13.0,90,0.00,,,0.00,Weather View 32 v70,2013-06-21 09:55:00,
2013-06-21 05:56:00,68.5,65.4,30.15,NNW,333,1.0,13.0,90,0.00,,,0.00,Weather View 32 v70,2013-06-21 09:56:00,
2013-06-21 05:57:00,68.4,65.4,30.15,NE,37,5.0,13.0,90,0.00,,,0.00,Weather View 32 v70,2013-06-21 09:57:00,
2013-06-21 05:58:00,68.5,65.5,30.15,North,359,3.0,13.0,90,0.00,,,0.00,Weather View 32 v70,2013-06-21 09:58:00,
2013-06-21 06:00:00,68.5,65.5,30.15,NNE,25,1.0,13.0,90,0.00,,,0.00,Weather View 32 v70,2013-06-21 10:00:00,
2013-06-21 06:01:00,68.5,65.5,30.15,North,353,8.0,13.0,90,0.00,,,0.00,Weather View 32 v70,2013-06-21 10:01:00,
2013-06-21 06:02:00,68.5,65.5,30.15,NE,49,5.0,13.0,90,0.00,,,0.00,Weather View 32 v70,2013-06-21 10:02:00,
2013-06-21 06:03:00,68.4,65.4,30.15,NNE,18,9.0,13.0,90,0.00,,,0.00,Weather View 32 v70,2013-06-21 10:03:00,
2013-06-21 06:06:00,68.5,65.5,30.15,North,359,4.0,13.0,90,0.00,,,0.00,Weather View 32 v70,2013-06-21 10:06:00,
2013-06-21 06:07:00,68.5,65.5,30.15,NNE,30,5.0,13.0,90,0.00,,,0.00,Weather View 32 v70,2013-06-21 10:07:00,
2013-06-21 06:08:00,68.5,65.5,30.15,NNE,24,5.0,13.0,90,0.00,,,0.00,Weather View 32 v70,2013-06-21 10:08:00,
2013-06-21 06:11:00,68.4,65.5,30.15,NNE,27,8.0,13.0,90,0.00,,,0.00,Weather View 32 v70,2013-06-21 10:11:00,
2013-06-21 06:12:00,68.5,65.6,30.15,NNE,23,5.0,13.0,91,0.00,,,0.00,Weather View 32 v70,2013-06-21 10:12:00,
2013-06-21 06:13:00,68.5,65.6,30.15,NNE,13,1.0,13.0,91,0.00,,,0.00,Weather View 32 v70,2013-06-21 10:13:00,
2013-06-21 06:16:00,68.3,65.5,30.15,NNE,27,2.0,13.0,91,0.00,,,0.00,Weather View 32 v70,2013-06-21 10:16:00,
2013-06-21 06:17:00,68.4,65.6,30.15,NNE,21,8.0,13.0,91,0.00,,,0.00,Weather View 32 v70,2013-06-21 10:17:00,
2013-06-21 06:18:00,68.4,65.6,30.15,NE,46,4.0,13.0,91,0.00,,,0.00,Weather View 32 v70,2013-06-21 10:18:00,
2013-06-21 06:21:00,68.5,65.8,30.15,North,1,6.0,13.0,91,0.00,,,0.00,Weather View 32 v70,2013-06-21 10:21:00,
2013-06-21 06:22:00,68.4,65.7,30.15,NNE,31,2.0,13.0,91,0.00,,,0.00,Weather View 32 v70,2013-06-21 10:22:00,
2013-06-21 06:23:00,68.4,65.7,30.15,NNE,28,5.0,13.0,91,0.00,,,0.00,Weather View 32 v70,2013-06-21 10:23:00,
2013-06-21 06:26:00,68.3,65.7,30.16,NNW,343,5.0,13.0,91,0.00,,,0.00,Weather View 32 v70,2013-06-21 10:26:00,
2013-06-21 06:27:00,68.4,65.8,30.16,NNE,20,6.0,13.0,91,0.00,,,0.00,Weather View 32 v70,2013-06-21 10:27:00,
2013-06-21 06:28:00,68.3,65.7,30.16,North,7,6.0,13.0,91,0.00,,,0.00,Weather View 32 v70,2013-06-21 10:28:00,
2013-06-21 06:29:00,68.4,65.8,30.16,North,356,7.0,13.0,92,0.00,,,0.00,Weather View 32 v70,2013-06-21 10:29:00,
2013-06-21 06:31:00,68.4,65.8,30.16,North,8,7.0,14.0,92,0.00,,,0.00,Weather View 32 v70,2013-06-21 10:31:00,
2013-06-21 06:32:00,68.5,66.0,30.16,NW,307,1.0,14.0,92,0.00,,,0.00,Weather View 32 v70,2013-06-21 10:32:00,
2013-06-21 06:33:00,68.4,65.9,30.16,NE,34,8.0,14.0,92,0.00,,,0.00,Weather View 32 v70,2013-06-21 10:33:00,
2013-06-21 06:34:00,68.4,65.9,30.16,NW,312,3.0,14.0,92,0.00,,,0.00,Weather View 32 v70,2013-06-21 10:34:00,
2013-06-21 06:36:00,68.5,66.0,30.16,North,0,11.0,14.0,92,0.00,,,0.00,Weather View 32 v70,2013-06-21 10:36:00,
2013-06-21 06:37:00,68.5,66.1,30.16,NNE,15,6.0,14.0,92,0.00,,,0.00,Weather View 32 v70,2013-06-21 10:37:00,
2013-06-21 06:38:00,68.4,66.0,30.16,NE,55,10.0,14.0,92,0.00,,,0.00,Weather View 32 v70,2013-06-21 10:38:00,
2013-06-21 06:39:00,68.5,66.1,30.16,North,11,6.0,14.0,92,0.00,,,0.00,Weather View 32 v70,2013-06-21 10:39:00,
2013-06-21 06:42:00,68.4,66.0,30.16,NW,307,4.0,14.0,92,0.00,,,0.00,Weather View 32 v70,2013-06-21 10:42:00,
2013-06-21 06:43:00,68.4,66.0,30.16,NNE,24,5.0,14.0,92,0.00,,,0.00,Weather View 32 v70,2013-06-21 10:43:00,
2013-06-21 06:44:00,68.5,66.1,30.16,North,352,6.0,14.0,92,0.00,,,0.00,Weather View 32 v70,2013-06-21 10:44:00,
2013-06-21 06:47:00,68.5,66.2,30.16,North,11,13.0,14.0,92,0.00,,,0.00,Weather View 32 v70,2013-06-21 10:47:00,
2013-06-21 06:48:00,68.4,66.1,30.16,North,8,10.0,15.0,93,0.00,,,0.00,Weather View 32 v70,2013-06-21 10:48:00,
2013-06-21 06:49:00,68.4,66.1,30.16,NNW,346,3.0,15.0,93,0.00,,,0.00,Weather View 32 v70,2013-06-21 10:49:00,
2013-06-21 06:52:00,68.5,66.3,30.16,North,4,9.0,15.0,93,0.00,,,0.00,Weather View 32 v70,2013-06-21 10:52:00,
2013-06-21 06:53:00,68.6,66.4,30.16,NNE,18,7.0,15.0,93,0.00,,,0.00,Weather View 32 v70,2013-06-21 10:53:00,
2013-06-21 06:54:00,68.5,66.3,30.16,NE,38,8.0,15.0,93,0.00,,,0.00,Weather View 32 v70,2013-06-21 10:54:00,
2013-06-21 06:57:00,68.6,66.4,30.16,NNE,14,11.0,15.0,93,0.00,,,0.00,Weather View 32 v70,2013-06-21 10:57:00,
2013-06-21 06:58:00,68.7,66.6,30.16,NE,37,7.0,15.0,93,0.00,,,0.00,Weather View 32 v70,2013-06-21 10:58:00,
2013-06-21 06:59:00,68.5,66.4,30.16,NNE,21,7.0,15.0,93,0.00,,,0.00,Weather View 32 v70,2013-06-21 10:59:00,
2013-06-21 07:00:00,68.7,66.6,30.16,North,8,16.0,17.0,93,0.00,,,0.00,Weather View 32 v70,2013-06-21 11:00:00,
2013-06-21 07:02:00,68.6,66.5,30.16,North,1,11.0,18.0,93,0.00,,,0.00,Weather View 32 v70,2013-06-21 11:02:00,
2013-06-21 07:03:00,68.7,66.6,30.16,NW,326,6.0,18.0,93,0.00,,,0.00,Weather View 32 v70,2013-06-21 11:03:00,
2013-06-21 07:04:00,68.7,66.6,30.16,NNE,31,9.0,18.0,93,0.00,,,0.00,Weather View 32 v70,2013-06-21 11:04:00,
2013-06-21 07:05:00,68.7,66.6,30.16,NNE,30,12.0,18.0,93,0.00,,,0.00,Weather View 32 v70,2013-06-21 11:05:00,
2013-06-21 07:07:00,68.7,66.7,30.16,NNE,20,8.0,18.0,93,0.00,,,0.00,Weather View 32 v70,2013-06-21 11:07:00,
2013-06-21 07:08:00,68.7,66.7,30.16,NNE,18,8.0,18.0,93,0.00,,,0.00,Weather View 32 v70,2013-06-21 11:08:00,
2013-06-21 07:09:00,68.7,66.7,30.16,NNE,17,9.0,18.0,93,0.00,,,0.00,Weather View 32 v70,2013-06-21 11:09:00,
2013-06-21 07:11:00,68.8,66.8,30.16,North,350,2.0,18.0,93,0.00,,,0.00,Weather View 32 v70,2013-06-21 11:11:00,
2013-06-21 07:13:00,68.7,66.7,30.17,North,3,10.0,18.0,94,0.00,,,0.00,Weather View 32 v70,2013-06-21 11:13:00,
2013-06-21 07:14:00,68.7,66.7,30.16,North,7,7.0,18.0,94,0.00,,,0.00,Weather View 32 v70,2013-06-21 11:14:00,
2013-06-21 07:16:00,68.7,66.8,30.17,North,359,5.0,18.0,94,0.00,,,0.00,Weather View 32 v70,2013-06-21 11:16:00,
2013-06-21 07:18:00,68.8,66.9,30.17,NNE,32,12.0,18.0,94,0.00,,,0.00,Weather View 32 v70,2013-06-21 11:18:00,
2013-06-21 07:19:00,68.8,66.9,30.17,NNE,17,9.0,18.0,94,0.00,,,0.00,Weather View 32 v70,2013-06-21 11:19:00,
2013-06-21 07:21:00,68.7,66.8,30.17,North,1,9.0,18.0,94,0.00,,,0.00,Weather View 32 v70,2013-06-21 11:21:00,
2013-06-21 07:23:00,68.7,66.9,30.17,North,11,8.0,18.0,94,0.00,,,0.00,Weather View 32 v70,2013-06-21 11:23:00,
2013-06-21 07:24:00,68.7,66.9,30.17,North,359,9.0,18.0,94,0.00,,,0.00,Weather View 32 v70,2013-06-21 11:24:00,
2013-06-21 07:25:00,68.8,67.0,30.17,NNE,23,12.0,18.0,94,0.00,,,0.00,Weather View 32 v70,2013-06-21 11:25:00,
2013-06-21 07:26:00,68.6,66.8,30.17,North,359,8.0,18.0,94,0.00,,,0.00,Weather View 32 v70,2013-06-21 11:26:00,
2013-06-21 07:28:00,68.7,66.9,30.17,North,11,10.0,18.0,94,0.00,,,0.00,Weather View 32 v70,2013-06-21 11:28:00,
2013-06-21 07:29:00,68.7,66.9,30.17,NNE,20,3.0,18.0,94,0.00,,,0.00,Weather View 32 v70,2013-06-21 11:29:00,
2013-06-21 07:30:00,68.8,67.0,30.17,NNE,24,7.0,18.0,94,0.00,,,0.00,Weather View 32 v70,2013-06-21 11:30:00,
2013-06-21 07:31:00,68.7,66.9,30.17,NNE,20,11.0,18.0,94,0.00,,,0.00,Weather View 32 v70,2013-06-21 11:31:00,
2013-06-21 07:33:00,68.8,67.1,30.18,NNE,20,12.0,18.0,94,0.00,,,0.00,Weather View 32 v70,2013-06-21 11:33:00,
2013-06-21 07:34:00,68.6,66.9,30.17,NNE,30,5.0,18.0,94,0.00,,,0.00,Weather View 32 v70,2013-06-21 11:34:00,
2013-06-21 07:35:00,68.8,67.1,30.17,NNE,18,6.0,18.0,94,0.00,,,0.00,Weather View 32 v70,2013-06-21 11:35:00,
2013-06-21 07:36:00,68.8,67.1,30.18,NNE,31,10.0,18.0,94,0.00,,,0.00,Weather View 32 v70,2013-06-21 11:36:00,
2013-06-21 07:38:00,68.8,67.1,30.17,NNE,28,7.0,18.0,94,0.00,,,0.00,Weather View 32 v70,2013-06-21 11:38:00,
2013-06-21 07:39:00,68.7,67.0,30.17,NE,37,9.0,18.0,94,0.00,,,0.00,Weather View 32 v70,2013-06-21 11:39:00,
2013-06-21 07:41:00,68.7,67.0,30.17,North,1,5.0,18.0,94,0.00,,,0.00,Weather View 32 v70,2013-06-21 11:41:00,
2013-06-21 07:43:00,68.9,67.2,30.18,NNW,333,13.0,18.0,94,0.00,,,0.00,Weather View 32 v70,2013-06-21 11:43:00,
2013-06-21 07:44:00,68.8,67.1,30.18,North,8,9.0,18.0,94,0.00,,,0.00,Weather View 32 v70,2013-06-21 11:44:00,
2013-06-21 07:46:00,68.9,67.2,30.18,NNE,14,7.0,18.0,95,0.00,,,0.00,Weather View 32 v70,2013-06-21 11:46:00,
2013-06-21 07:49:00,68.7,67.1,30.18,North,354,8.0,18.0,95,0.00,,,0.00,Weather View 32 v70,2013-06-21 11:49:00,
2013-06-21 07:51:00,68.9,67.3,30.18,NNE,25,8.0,18.0,95,0.00,,,0.00,Weather View 32 v70,2013-06-21 11:51:00,
2013-06-21 07:54:00,68.8,67.2,30.18,North,359,6.0,18.0,95,0.00,,,0.00,Weather View 32 v70,2013-06-21 11:54:00,
2013-06-21 07:56:00,68.8,67.2,30.18,NNE,17,8.0,18.0,95,0.00,,,0.00,Weather View 32 v70,2013-06-21 11:56:00,
2013-06-21 07:59:00,68.7,67.1,30.18,North,7,9.0,18.0,95,0.00,,,0.00,Weather View 32 v70,2013-06-21 11:59:00,
2013-06-21 08:00:00,68.7,67.1,30.18,NNE,17,8.0,18.0,95,0.00,,,0.00,Weather View 32 v70,2013-06-21 12:00:00,
2013-06-21 08:01:00,68.6,67.0,30.18,NNE,31,6.0,17.0,95,0.00,,,0.00,Weather View 32 v70,2013-06-21 12:01:00,
2013-06-21 08:04:00,68.7,67.2,30.18,North,7,8.0,17.0,95,0.00,,,0.00,Weather View 32 v70,2013-06-21 12:04:00,
2013-06-21 08:05:00,68.6,67.1,30.17,NNE,24,14.0,17.0,95,0.00,,,0.00,Weather View 32 v70,2013-06-21 12:05:00,
2013-06-21 08:06:00,68.6,67.1,30.18,NNE,14,4.0,17.0,95,0.00,,,0.00,Weather View 32 v70,2013-06-21 12:06:00,
2013-06-21 08:09:00,68.6,67.1,30.18,NNE,30,12.0,17.0,95,0.00,,,0.00,Weather View 32 v70,2013-06-21 12:09:00,
2013-06-21 08:11:00,68.5,67.0,30.18,NNE,27,12.0,17.0,95,0.00,,,0.00,Weather View 32 v70,2013-06-21 12:11:00,
2013-06-21 08:12:00,68.5,67.0,30.18,NNE,27,10.0,17.0,95,0.00,,,0.00,Weather View 32 v70,2013-06-21 12:12:00,
2013-06-21 08:14:00,68.6,67.1,30.18,NNW,345,5.0,17.0,95,0.00,,,0.00,Weather View 32 v70,2013-06-21 12:14:00,
2013-06-21 08:16:00,68.4,66.9,30.18,NNE,30,5.0,17.0,95,0.00,,,0.00,Weather View 32 v70,2013-06-21 12:16:00,
2013-06-21 08:17:00,68.5,67.0,30.18,NNE,31,5.0,17.0,95,0.00,,,0.00,Weather View 32 v70,2013-06-21 12:17:00,
2013-06-21 08:19:00,68.6,67.2,30.18,North,3,11.0,17.0,95,0.00,,,0.00,Weather View 32 v70,2013-06-21 12:19:00,
2013-06-21 08:21:00,68.5,67.0,30.18,NNW,328,8.0,17.0,95,0.00,,,0.00,Weather View 32 v70,2013-06-21 12:21:00,
2013-06-21 08:22:00,68.5,67.1,30.18,North,7,11.0,17.0,95,0.00,,,0.00,Weather View 32 v70,2013-06-21 12:22:00,
2013-06-21 08:24:00,68.4,67.0,30.18,NNE,17,8.0,17.0,95,0.00,,,0.00,Weather View 32 v70,2013-06-21 12:24:00,
2013-06-21 08:26:00,68.5,67.1,30.18,North,3,6.0,17.0,95,0.00,,,0.00,Weather View 32 v70,2013-06-21 12:26:00,
2013-06-21 08:27:00,68.4,67.0,30.18,North,359,6.0,17.0,95,0.00,,,0.00,Weather View 32 v70,2013-06-21 12:27:00,
2013-06-21 08:29:00,68.5,67.1,30.18,NNE,18,12.0,17.0,95,0.00,,,0.00,Weather View 32 v70,2013-06-21 12:29:00,
2013-06-21 08:30:00,68.5,67.1,30.18,NNE,18,7.0,17.0,95,0.00,,,0.00,Weather View 32 v70,2013-06-21 12:30:00,
2013-06-21 08:31:00,68.5,67.1,30.19,NNE,21,10.0,17.0,95,0.00,,,0.00,Weather View 32 v70,2013-06-21 12:31:00,
2013-06-21 08:32:00,68.5,67.1,30.18,North,0,8.0,17.0,95,0.00,,,0.00,Weather View 32 v70,2013-06-21 12:32:00,
2013-06-21 08:35:00,68.5,67.1,30.19,NNE,25,5.0,17.0,95,0.00,,,0.00,Weather View 32 v70,2013-06-21 12:35:00,
2013-06-21 08:37:00,68.4,67.0,30.18,NNE,18,12.0,17.0,95,0.00,,,0.00,Weather View 32 v70,2013-06-21 12:37:00,
2013-06-21 08:40:00,68.5,67.1,30.18,NNE,21,8.0,17.0,95,0.00,,,0.00,Weather View 32 v70,2013-06-21 12:40:00,
2013-06-21 08:42:00,68.5,67.1,30.18,NNE,18,6.0,17.0,95,0.00,,,0.00,Weather View 32 v70,2013-06-21 12:42:00,
2013-06-21 08:45:00,68.6,67.3,30.18,ENE,66,4.0,17.0,96,0.00,,,0.00,Weather View 32 v70,2013-06-21 12:45:00,
2013-06-21 08:47:00,68.6,67.3,30.19,North,0,11.0,16.0,96,0.00,,,0.00,Weather View 32 v70,2013-06-21 12:47:00,
2013-06-21 08:50:00,68.6,67.2,30.19,NE,37,9.0,16.0,95,0.00,,,0.00,Weather View 32 v70,2013-06-21 12:50:00,
2013-06-21 08:52:00,68.7,67.3,30.19,North,357,12.0,16.0,95,0.00,,,0.00,Weather View 32 v70,2013-06-21 12:52:00,
2013-06-21 08:53:00,68.7,67.3,30.19,NNW,329,9.0,16.0,95,0.00,,,0.00,Weather View 32 v70,2013-06-21 12:53:00,
2013-06-21 08:55:00,68.7,67.3,30.19,NNE,14,12.0,16.0,95,0.00,,,0.00,Weather View 32 v70,2013-06-21 12:55:00,
2013-06-21 08:56:00,68.7,67.3,30.19,NNE,24,4.0,16.0,95,0.00,,,0.00,Weather View 32 v70,2013-06-21 12:56:00,
2013-06-21 08:58:00,68.7,67.3,30.19,North,6,7.0,16.0,95,0.00,,,0.00,Weather View 32 v70,2013-06-21 12:58:00,
2013-06-21 09:00:00,68.7,67.3,30.19,NNE,14,5.0,17.0,95,0.00,,,0.00,Weather View 32 v70,2013-06-21 13:00:00,
2013-06-21 09:01:00,68.7,67.3,30.19,NE,45,8.0,17.0,95,0.00,,,0.00,Weather View 32 v70,2013-06-21 13:01:00,
2013-06-21 09:03:00,68.7,67.3,30.19,NNE,28,11.0,17.0,95,0.00,,,0.00,Weather View 32 v70,2013-06-21 13:03:00,
2013-06-21 09:04:00,68.8,67.4,30.19,North,4,10.0,17.0,95,0.00,,,0.00,Weather View 32 v70,2013-06-21 13:04:00,
2013-06-21 09:06:00,68.7,67.3,30.19,North,349,8.0,17.0,95,0.00,,,0.00,Weather View 32 v70,2013-06-21 13:06:00,
2013-06-21 09:08:00,68.8,67.4,30.19,NNE,21,6.0,17.0,95,0.00,,,0.00,Weather View 32 v70,2013-06-21 13:08:00,
2013-06-21 09:09:00,68.9,67.5,30.19,North,357,10.0,17.0,95,0.00,,,0.00,Weather View 32 v70,2013-06-21 13:09:00,
2013-06-21 09:11:00,69.0,67.6,30.19,NNE,27,9.0,17.0,95,0.00,,,0.00,Weather View 32 v70,2013-06-21 13:11:00,
2013-06-21 09:12:00,69.0,67.6,30.19,NW,309,11.0,17.0,95,0.00,,,0.00,Weather View 32 v70,2013-06-21 13:12:00,
2013-06-21 09:13:00,68.9,67.5,30.19,NNE,17,8.0,17.0,95,0.00,,,0.00,Weather View 32 v70,2013-06-21 13:13:00,
2013-06-21 09:14:00,69.0,67.6,30.19,NNE,17,12.0,17.0,95,0.00,,,0.00,Weather View 32 v70,2013-06-21 13:14:00,
2013-06-21 09:17:00,68.9,67.5,30.19,North,359,10.0,18.0,95,0.00,,,0.00,Weather View 32 v70,2013-06-21 13:17:00,
2013-06-21 09:18:00,68.9,67.5,30.18,NNE,30,15.0,18.0,95,0.00,,,0.00,Weather View 32 v70,2013-06-21 13:18:00,
2013-06-21 09:19:00,69.0,67.6,30.18,NE,34,7.0,18.0,95,0.00,,,0.00,Weather View 32 v70,2013-06-21 13:19:00,
2013-06-21 09:22:00,69.2,67.8,30.18,NE,42,8.0,18.0,95,0.00,,,0.00,Weather View 32 v70,2013-06-21 13:22:00,
2013-06-21 09:23:00,69.1,67.7,30.18,North,1,10.0,18.0,95,0.00,,,0.00,Weather View 32 v70,2013-06-21 13:23:00,
2013-06-21 09:24:00,69.2,67.8,30.18,North,0,13.0,18.0,95,0.00,,,0.00,Weather View 32 v70,2013-06-21 13:24:00,
2013-06-21 09:27:00,69.2,67.8,30.18,North,6,11.0,18.0,95,0.00,,,0.00,Weather View 32 v70,2013-06-21 13:27:00,
2013-06-21 09:28:00,69.2,67.8,30.18,NE,34,12.0,18.0,95,0.00,,,0.00,Weather View 32 v70,2013-06-21 13:28:00,
2013-06-21 09:29:00,69.1,67.7,30.18,NE,38,14.0,18.0,95,0.00,,,0.00,Weather View 32 v70,2013-06-21 13:29:00,
2013-06-21 09:30:00,69.3,67.9,30.18,NE,49,6.0,18.0,95,0.00,,,0.00,Weather View 32 v70,2013-06-21 13:30:00,
2013-06-21 09:32:00,69.4,68.0,30.18,NNE,18,9.0,18.0,95,0.00,,,0.00,Weather View 32 v70,2013-06-21 13:32:00,
2013-06-21 09:33:00,69.4,68.0,30.18,North,0,14.0,18.0,95,0.00,,,0.00,Weather View 32 v70,2013-06-21 13:33:00,
2013-06-21 09:34:00,69.2,67.8,30.18,North,359,7.0,18.0,95,0.00,,,0.00,Weather View 32 v70,2013-06-21 13:34:00,
2013-06-21 09:36:00,69.4,68.0,30.18,NNE,31,6.0,18.0,95,0.00,,,0.00,Weather View 32 v70,2013-06-21 13:36:00,
2013-06-21 09:38:00,69.4,68.0,30.18,NNE,18,5.0,18.0,95,0.00,,,0.00,Weather View 32 v70,2013-06-21 13:38:00,
2013-06-21 09:39:00,69.4,68.0,30.18,NNE,30,8.0,18.0,95,0.00,,,0.00,Weather View 32 v70,2013-06-21 13:39:00,
2013-06-21 09:41:00,69.5,68.1,30.18,North,359,3.0,18.0,95,0.00,,,0.00,Weather View 32 v70,2013-06-21 13:41:00,
2013-06-21 09:43:00,69.5,68.1,30.18,NNE,23,13.0,18.0,95,0.00,,,0.00,Weather View 32 v70,2013-06-21 13:43:00,
2013-06-21 09:44:00,69.5,68.1,30.18,NE,53,9.0,18.0,95,0.00,,,0.00,Weather View 32 v70,2013-06-21 13:44:00,
2013-06-21 09:45:00,69.5,68.0,30.18,North,349,11.0,18.0,95,0.00,,,0.00,Weather View 32 v70,2013-06-21 13:45:00,
2013-06-21 09:47:00,69.7,68.2,30.18,North,11,11.0,18.0,95,0.00,,,0.00,Weather View 32 v70,2013-06-21 13:47:00,
2013-06-21 09:48:00,69.7,68.2,30.18,NW,325,5.0,18.0,95,0.00,,,0.00,Weather View 32 v70,2013-06-21 13:48:00,
2013-06-21 09:49:00,69.8,68.3,30.18,NNE,18,8.0,18.0,95,0.00,,,0.00,Weather View 32 v70,2013-06-21 13:49:00,
2013-06-21 09:50:00,69.9,68.4,30.18,ENE,72,6.0,18.0,95,0.00,,,0.00,Weather View 32 v70,2013-06-21 13:50:00,
2013-06-21 09:53:00,70.0,68.5,30.18,NNW,339,8.0,18.0,95,0.00,,,0.00,Weather View 32 v70,2013-06-21 13:53:00,
2013-06-21 09:54:00,70.0,68.5,30.18,North,11,11.0,18.0,95,0.00,,,0.00,Weather View 32 v70,2013-06-21 13:54:00,
2013-06-21 09:55:00,69.9,68.4,30.18,NNE,13,7.0,18.0,95,0.00,,,0.00,Weather View 32 v70,2013-06-21 13:55:00,
2013-06-21 09:58:00,70.2,68.6,30.18,NE,37,4.0,18.0,95,0.00,,,0.00,Weather View 32 v70,2013-06-21 13:58:00,
2013-06-21 09:59:00,70.2,68.6,30.18,NNE,32,7.0,18.0,95,0.00,,,0.00,Weather View 32 v70,2013-06-21 13:59:00,
2013-06-21 10:00:00,70.3,68.7,30.18,NNW,335,6.0,18.0,95,0.00,,,0.00,Weather View 32 v70,2013-06-21 14:00:00,
2013-06-21 10:03:00,70.5,68.8,30.18,North,1,3.0,18.0,95,0.00,,,0.00,Weather View 32 v70,2013-06-21 14:03:00,
2013-06-21 10:04:00,70.5,68.8,30.18,NE,46,9.0,18.0,95,0.00,,,0.00,Weather View 32 v70,2013-06-21 14:04:00,
2013-06-21 10:10:00,70.8,69.0,30.18,North,0,11.0,18.0,94,0.00,,,0.00,Weather View 32 v70,2013-06-21 14:10:00,
2013-06-21 10:19:00,71.5,69.5,30.18,NNE,18,9.0,18.0,93,0.00,,,0.00,Weather View 32 v70,2013-06-21 14:19:00,
2013-06-21 10:26:00,71.5,69.5,30.18,NNE,18,9.0,18.0,93,0.00,,,0.00,Weather View 32 v70,2013-06-21 14:26:00,
2013-06-21 10:29:00,72.0,69.7,30.18,NNE,17,9.0,18.0,93,0.00,,,0.00,Weather View 32 v70,2013-06-21 14:29:00,
2013-06-21 10:40:00,72.5,70.0,30.19,NE,55,9.0,17.0,92,0.00,,,0.00,Weather View 32 v70,2013-06-21 14:40:00,
2013-06-21 10:50:00,73.1,70.3,30.19,NNE,17,10.0,18.0,91,0.00,,,0.00,Weather View 32 v70,2013-06-21 14:50:00,
2013-06-21 11:00:00,73.5,70.2,30.18,NNE,21,12.0,18.0,90,0.00,,,0.00,Weather View 32 v70,2013-06-21 15:00:00,
2013-06-21 11:19:00,74.0,70.5,30.19,NNE,24,12.0,18.0,89,0.00,,,0.00,Weather View 32 v70,2013-06-21 15:19:00,
2013-06-21 11:26:00,74.0,70.5,30.19,NNE,24,12.0,18.0,89,0.00,,,0.00,Weather View 32 v70,2013-06-21 15:26:00,
2013-06-21 11:29:00,74.6,70.9,30.19,NNE,17,6.0,18.0,88,0.00,,,0.00,Weather View 32 v70,2013-06-21 15:29:00,
2013-06-21 11:39:00,75.3,71.4,30.18,NE,41,5.0,18.0,88,0.00,,,0.00,Weather View 32 v70,2013-06-21 15:39:00,
2013-06-21 11:49:00,75.6,71.3,30.18,NE,49,9.0,19.0,87,0.00,,,0.00,Weather View 32 v70,2013-06-21 15:49:00,
2013-06-21 12:00:00,76.0,71.7,30.19,NE,41,8.0,19.0,87,0.00,,,0.00,Weather View 32 v70,2013-06-21 16:00:00,
2013-06-21 12:09:00,76.5,71.9,30.19,NE,51,12.0,21.0,86,0.00,,,0.00,Weather View 32 v70,2013-06-21 16:09:00,
2013-06-21 12:20:00,77.0,72.0,30.19,NNE,30,8.0,22.0,85,0.00,,,0.00,Weather View 32 v70,2013-06-21 16:20:00,
2013-06-21 12:27:00,77.0,72.0,30.19,NNE,30,8.0,22.0,85,0.00,,,0.00,Weather View 32 v70,2013-06-21 16:27:00,
2013-06-21 12:40:00,78.0,72.4,30.19,NE,56,20.0,22.0,83,0.00,,,0.00,Weather View 32 v70,2013-06-21 16:40:00,
2013-06-21 12:49:00,78.7,72.8,30.18,NE,34,15.0,22.0,82,0.00,,,0.00,Weather View 32 v70,2013-06-21 16:49:00,
2013-06-21 13:00:00,79.0,72.6,30.18,ENE,65,14.0,23.0,81,0.00,,,0.00,Weather View 32 v70,2013-06-21 17:00:00,
2013-06-21 13:09:00,79.2,72.6,30.17,NE,56,12.0,23.0,80,0.00,,,0.00,Weather View 32 v70,2013-06-21 17:09:00,
2013-06-21 13:20:00,79.4,72.7,30.17,ENE,62,12.0,23.0,80,0.00,,,0.00,Weather View 32 v70,2013-06-21 17:20:00,
2013-06-21 13:27:00,79.4,72.7,30.17,ENE,62,12.0,23.0,80,0.00,,,0.00,Weather View 32 v70,2013-06-21 17:27:00,
2013-06-21 13:29:00,79.5,72.6,30.16,East,86,5.0,23.0,80,0.00,,,0.00,Weather View 32 v70,2013-06-21 17:29:00,
2013-06-21 13:40:00,79.8,72.8,30.16,NNE,31,13.0,23.0,79,0.00,,,0.00,Weather View 32 v70,2013-06-21 17:40:00,
2013-06-21 13:50:00,79.5,72.7,30.16,NE,45,13.0,23.0,80,0.00,,,0.00,Weather View 32 v70,2013-06-21 17:50:00,
2013-06-21 14:09:00,79.7,73.1,30.16,NE,55,10.0,24.0,80,0.00,,,0.00,Weather View 32 v70,2013-06-21 18:09:00,
2013-06-21 14:20:00,80.4,73.2,30.16,NE,55,18.0,24.0,79,0.00,,,0.00,Weather View 32 v70,2013-06-21 18:20:00,
2013-06-21 14:28:00,80.4,73.2,30.16,NE,55,18.0,24.0,79,0.00,,,0.00,Weather View 32 v70,2013-06-21 18:28:00,
2013-06-21 14:30:00,80.3,73.3,30.15,NE,56,11.0,26.0,79,0.00,,,0.00,Weather View 32 v70,2013-06-21 18:30:00,
2013-06-21 14:40:00,80.3,73.0,30.15,ENE,66,18.0,26.0,79,0.00,,,0.00,Weather View 32 v70,2013-06-21 18:40:00,
2013-06-21 14:50:00,80.5,73.1,30.15,NE,49,16.0,26.0,78,0.00,,,0.00,Weather View 32 v70,2013-06-21 18:50:00,
2013-06-21 15:00:00,80.6,73.2,30.15,NNE,17,11.0,26.0,78,0.00,,,0.00,Weather View 32 v70,2013-06-21 19:00:00,
2013-06-21 15:10:00,80.4,73.1,30.16,NNE,28,15.0,26.0,79,0.00,,,0.00,Weather View 32 v70,2013-06-21 19:10:00,
2013-06-21 15:19:00,80.7,73.7,30.15,ENE,59,12.0,26.0,79,0.00,,,0.00,Weather View 32 v70,2013-06-21 19:19:00,
2013-06-21 15:28:00,80.7,73.7,30.15,ENE,59,12.0,26.0,79,0.00,,,0.00,Weather View 32 v70,2013-06-21 19:28:00,
2013-06-21 15:29:00,80.8,73.5,30.14,NE,52,17.0,24.0,79,0.00,,,0.00,Weather View 32 v70,2013-06-21 19:29:00,
2013-06-21 15:39:00,80.4,73.7,30.14,NE,46,15.0,25.0,80,0.00,,,0.00,Weather View 32 v70,2013-06-21 19:39:00,
2013-06-21 15:49:00,80.4,73.8,30.14,ENE,66,15.0,25.0,81,0.00,,,0.00,Weather View 32 v70,2013-06-21 19:49:00,
2013-06-21 15:59:00,80.4,74.0,30.14,NNE,21,11.0,27.0,81,0.00,,,0.00,Weather View 32 v70,2013-06-21 19:59:00,
2013-06-21 16:09:00,80.2,74.0,30.14,NE,38,15.0,28.0,82,0.00,,,0.00,Weather View 32 v70,2013-06-21 20:09:00,
2013-06-21 16:20:00,79.4,74.0,30.14,NE,34,5.0,28.0,84,0.00,,,0.00,Weather View 32 v70,2013-06-21 20:20:00,
2013-06-21 16:29:00,79.4,74.0,30.14,NE,34,5.0,28.0,84,0.00,,,0.00,Weather View 32 v70,2013-06-21 20:29:00,
2013-06-21 16:30:00,79.0,74.4,30.14,ENE,73,14.0,28.0,86,0.00,,,0.00,Weather View 32 v70,2013-06-21 20:30:00,
2013-06-21 16:40:00,78.3,73.8,30.13,ENE,62,17.0,28.0,86,0.00,,,0.00,Weather View 32 v70,2013-06-21 20:40:00,
2013-06-21 16:50:00,78.4,74.3,30.12,ENE,77,17.0,28.0,87,0.00,,,0.00,Weather View 32 v70,2013-06-21 20:50:00,
2013-06-21 17:00:00,77.8,73.8,30.13,East,100,18.0,28.0,88,0.00,,,0.00,Weather View 32 v70,2013-06-21 21:00:00,
2013-06-21 17:10:00,77.2,73.6,30.12,East,91,15.0,27.0,89,0.00,,,0.00,Weather View 32 v70,2013-06-21 21:10:00,
2013-06-21 17:19:00,76.8,73.4,30.12,East,93,11.0,25.0,89,0.00,,,0.00,Weather View 32 v70,2013-06-21 21:19:00,
2013-06-21 17:30:00,76.8,73.1,30.12,East,97,14.0,25.0,88,0.00,,,0.00,Weather View 32 v70,2013-06-21 21:30:00,
2013-06-21 17:40:00,77.0,73.5,30.12,East,80,15.0,22.0,89,0.00,,,0.00,Weather View 32 v70,2013-06-21 21:40:00,
2013-06-21 17:50:00,77.3,73.5,30.12,ENE,76,10.0,22.0,88,0.00,,,0.00,Weather View 32 v70,2013-06-21 21:50:00,
2013-06-21 17:59:00,77.7,73.7,30.12,East,89,12.0,19.0,88,0.00,,,0.00,Weather View 32 v70,2013-06-21 21:59:00,
2013-06-21 18:09:00,77.1,73.5,30.12,East,82,10.0,17.0,89,0.00,,,0.00,Weather View 32 v70,2013-06-21 22:09:00,
2013-06-21 18:19:00,77.4,73.9,30.12,East,80,14.0,17.0,89,0.00,,,0.00,Weather View 32 v70,2013-06-21 22:19:00,
2013-06-21 18:30:00,77.7,74.1,30.12,East,80,12.0,16.0,89,0.00,,,0.00,Weather View 32 v70,2013-06-21 22:30:00,
2013-06-21 18:40:00,77.7,74.0,30.12,ENE,72,11.0,16.0,89,0.00,,,0.00,Weather View 32 v70,2013-06-21 22:40:00,
2013-06-21 18:49:00,77.8,74.1,30.12,ENE,60,10.0,14.0,88,0.00,,,0.00,Weather View 32 v70,2013-06-21 22:49:00,
2013-06-21 18:59:00,77.7,73.9,30.12,ENE,60,10.0,14.0,88,0.00,,,0.00,Weather View 32 v70,2013-06-21 22:59:00,
2013-06-21 19:09:00,77.4,73.4,30.12,ENE,76,4.0,14.0,88,0.00,,,0.00,Weather View 32 v70,2013-06-21 23:09:00,
2013-06-21 19:20:00,77.5,73.4,30.12,ENE,66,9.0,14.0,87,0.00,,,0.00,Weather View 32 v70,2013-06-21 23:20:00,
2013-06-21 19:30:00,77.5,73.4,30.12,ENE,60,5.0,14.0,87,0.00,,,0.00,Weather View 32 v70,2013-06-21 23:30:00,
2013-06-21 19:31:00,77.5,73.4,30.12,ENE,60,5.0,14.0,87,0.00,,,0.00,Weather View 32 v70,2013-06-21 23:31:00,
2013-06-21 19:39:00,77.4,73.4,30.13,NE,44,9.0,14.0,88,0.00,,,0.00,Weather View 32 v70,2013-06-21 23:39:00,
2013-06-21 19:50:00,77.7,73.8,30.13,ENE,68,11.0,16.0,88,0.00,,,0.00,Weather View 32 v70,2013-06-21 23:50:00,
2013-06-21 19:59:00,77.2,73.4,30.12,ENE,70,13.0,17.0,88,0.00,,,0.00,Weather View 32 v70,2013-06-21 23:59:00,
2013-06-21 20:09:00,77.0,73.5,30.12,ENE,68,15.0,17.0,89,0.00,,,0.00,Weather View 32 v70,2013-06-22 00:09:00,
2013-06-21 20:19:00,76.6,73.1,30.12,NNE,28,13.0,17.0,89,0.00,,,0.00,Weather View 32 v70,2013-06-22 00:19:00,
2013-06-21 20:30:00,76.2,72.5,30.12,North,8,8.0,17.0,88,0.00,,,0.00,Weather View 32 v70,2013-06-22 00:30:00,
2013-06-21 20:31:00,76.2,72.5,30.12,North,8,8.0,17.0,88,0.00,,,0.00,Weather View 32 v70,2013-06-22 00:31:00,
2013-06-21 20:40:00,75.8,72.2,30.12,ENE,65,4.0,17.0,89,0.00,,,0.00,Weather View 32 v70,2013-06-22 00:40:00,
2013-06-21 20:50:00,75.9,72.5,30.12,NNE,28,7.0,17.0,89,0.00,,,0.00,Weather View 32 v70,2013-06-22 00:50:00,
2013-06-21 21:00:00,75.5,72.2,30.12,ENE,62,8.0,17.0,90,0.00,,,0.00,Weather View 32 v70,2013-06-22 01:00:00,
2013-06-21 21:09:00,75.4,72.2,30.12,ENE,68,7.0,17.0,90,0.00,,,0.00,Weather View 32 v70,2013-06-22 01:09:00,
2013-06-21 21:19:00,75.4,72.1,30.12,North,8,6.0,15.0,90,0.00,,,0.00,Weather View 32 v70,2013-06-22 01:19:00,
2013-06-21 21:30:00,75.6,72.3,30.12,North,357,3.0,13.0,90,0.00,,,0.00,Weather View 32 v70,2013-06-22 01:30:00,
2013-06-21 21:32:00,75.6,72.3,30.12,North,357,3.0,13.0,90,0.00,,,0.00,Weather View 32 v70,2013-06-22 01:32:00,
2013-06-21 21:40:00,75.4,72.2,30.12,NNE,18,7.0,13.0,90,0.00,,,0.00,Weather View 32 v70,2013-06-22 01:40:00,
2013-06-21 21:50:00,75.3,72.2,30.13,NE,34,5.0,13.0,90,0.00,,,0.00,Weather View 32 v70,2013-06-22 01:50:00,
2013-06-21 22:00:00,75.3,72.2,30.13,NNE,20,3.0,13.0,90,0.00,,,0.00,Weather View 32 v70,2013-06-22 02:00:00,
2013-06-21 22:10:00,75.2,72.2,30.13,North,11,4.0,13.0,91,0.00,,,0.00,Weather View 32 v70,2013-06-22 02:10:00,
2013-06-21 22:20:00,75.5,72.7,30.13,ENE,63,8.0,9.0,91,0.00,,,0.00,Weather View 32 v70,2013-06-22 02:20:00,
2013-06-21 22:30:00,76.3,73.5,30.13,NNE,24,6.0,11.0,91,0.00,,,0.00,Weather View 32 v70,2013-06-22 02:30:00,
2013-06-21 22:39:00,76.5,73.6,30.13,NE,34,9.0,13.0,91,0.00,,,0.00,Weather View 32 v70,2013-06-22 02:39:00,
2013-06-21 22:49:00,76.7,73.7,30.13,ENE,63,14.0,21.0,90,0.00,,,0.00,Weather View 32 v70,2013-06-22 02:49:00,
2013-06-21 23:00:00,76.5,73.6,30.13,East,93,15.0,22.0,91,0.00,,,0.00,Weather View 32 v70,2013-06-22 03:00:00,
2013-06-21 23:10:00,75.8,73.3,30.13,East,87,19.0,24.0,92,0.00,,,0.00,Weather View 32 v70,2013-06-22 03:10:00,
2013-06-21 23:19:00,74.8,72.5,30.13,ENE,58,18.0,24.0,93,0.00,,,0.00,Weather View 32 v70,2013-06-22 03:19:00,
2013-06-21 23:29:00,74.9,72.7,30.13,East,79,22.0,24.0,93,0.00,,,0.00,Weather View 32 v70,2013-06-22 03:29:00,
2013-06-21 23:33:00,74.9,72.7,30.13,East,79,22.0,24.0,93,0.00,,,0.00,Weather View 32 v70,2013-06-22 03:33:00,
2013-06-21 23:40:00,74.7,72.7,30.13,ENE,66,18.0,24.0,94,0.00,,,0.00,Weather View 32 v70,2013-06-22 03:40:00,
2013-06-21 23:50:00,74.6,72.8,30.12,ENE,60,16.0,24.0,94,0.00,,,0.00,Weather View 32 v70,2013-06-22 03:50:00,
2013-06-21 23:59:00,74.4,72.6,30.13,ENE,66,18.0,24.0,94,0.00,,,0.00,Weather View 32 v70,2013-06-22 03:59:00,